sensor_id;sensor_type;location;lat;lon;timestamp;pressure;altitude;pressure_sealevel;temperature;humidity
46534;BME280;32260;52.008;4.752;2022-09-12T00:01:39;101783.19;;;18.43;63.29
46534;BME280;32260;52.008;4.752;2022-09-12T00:04:06;101777.00;;;18.41;63.25
46534;BME280;32260;52.008;4.752;2022-09-12T00:06:35;101775.16;;;18.43;63.40
46534;BME280;32260;52.008;4.752;2022-09-12T00:09:05;101777.00;;;18.41;63.41
46534;BME280;32260;52.008;4.752;2022-09-12T00:11:36;101773.53;;;18.39;63.47
46534;BME280;32260;52.008;4.752;2022-09-12T00:14:03;101769.09;;;18.38;63.55
46534;BME280;32260;52.008;4.752;2022-09-12T00:16:32;101764.66;;;18.37;63.63
46534;BME280;32260;52.008;4.752;2022-09-12T00:18:59;101762.78;;;18.39;63.45
46534;BME280;32260;52.008;4.752;2022-09-12T00:21:25;101769.00;;;18.40;63.51
46534;BME280;32260;52.008;4.752;2022-09-12T00:23:52;101768.16;;;18.39;63.34
46534;BME280;32260;52.008;4.752;2022-09-12T00:26:19;101770.13;;;18.34;63.45
46534;BME280;32260;52.008;4.752;2022-09-12T00:28:46;101766.50;;;18.35;63.67
46534;BME280;32260;52.008;4.752;2022-09-12T00:31:17;101769.31;;;18.32;63.48
46534;BME280;32260;52.008;4.752;2022-09-12T00:33:43;101770.38;;;18.28;63.39
46534;BME280;32260;52.008;4.752;2022-09-12T00:36:13;101769.31;;;18.32;63.30
46534;BME280;32260;52.008;4.752;2022-09-12T00:38:41;101760.44;;;18.30;63.22
46534;BME280;32260;52.008;4.752;2022-09-12T00:41:13;101767.72;;;18.26;63.35
46534;BME280;32260;52.008;4.752;2022-09-12T00:43:43;101765.09;;;18.25;63.55
46534;BME280;32260;52.008;4.752;2022-09-12T00:47:30;101761.28;;;18.32;63.14
46534;BME280;32260;52.008;4.752;2022-09-12T00:52:19;101753.50;;;18.24;63.57
46534;BME280;32260;52.008;4.752;2022-09-12T00:54:49;101759.38;;;18.34;63.32
46534;BME280;32260;52.008;4.752;2022-09-12T00:57:18;101754.59;;;18.19;63.32
46534;BME280;32260;52.008;4.752;2022-09-12T00:59:49;101752.78;;;18.19;63.39
46534;BME280;32260;52.008;4.752;2022-09-12T01:02:17;101757.44;;;18.14;63.48
46534;BME280;32260;52.008;4.752;2022-09-12T01:04:44;101745.72;;;18.17;63.48
46534;BME280;32260;52.008;4.752;2022-09-12T01:07:11;101740.38;;;18.17;63.47
46534;BME280;32260;52.008;4.752;2022-09-12T01:09:38;101744.88;;;18.16;63.42
46534;BME280;32260;52.008;4.752;2022-09-12T01:12:05;101746.63;;;18.17;63.33
46534;BME280;32260;52.008;4.752;2022-09-12T01:14:32;101741.31;;;18.16;63.28
46534;BME280;32260;52.008;4.752;2022-09-12T01:16:58;101747.63;;;18.15;63.54
46534;BME280;32260;52.008;4.752;2022-09-12T01:22:48;101736.88;;;18.15;63.67
46534;BME280;32260;52.008;4.752;2022-09-12T01:31:07;101726.22;;;18.13;63.77
46534;BME280;32260;52.008;4.752;2022-09-12T01:34:52;101729.78;;;18.14;63.94
46534;BME280;32260;52.008;4.752;2022-09-12T01:39:36;101718.91;;;18.17;64.00
46534;BME280;32260;52.008;4.752;2022-09-12T01:42:14;101727.91;;;18.16;63.79
46534;BME280;32260;52.008;4.752;2022-09-12T01:44:53;101726.16;;;18.15;63.82
46534;BME280;32260;52.008;4.752;2022-09-12T01:47:43;101725.94;;;18.21;63.80
46534;BME280;32260;52.008;4.752;2022-09-12T01:50:18;101726.94;;;18.18;63.79
46534;BME280;32260;52.008;4.752;2022-09-12T01:53:07;101716.97;;;18.22;63.69
46534;BME280;32260;52.008;4.752;2022-09-12T01:55:40;101717.91;;;18.19;63.81
46534;BME280;32260;52.008;4.752;2022-09-12T01:58:20;101720.66;;;18.18;63.72
46534;BME280;32260;52.008;4.752;2022-09-12T02:03:43;101710.16;;;18.11;63.62
46534;BME280;32260;52.008;4.752;2022-09-12T02:06:18;101704.94;;;18.08;63.86
46534;BME280;32260;52.008;4.752;2022-09-12T02:08:51;101703.19;;;18.07;63.96
46534;BME280;32260;52.008;4.752;2022-09-12T02:11:18;101699.91;;;17.99;63.91
46534;BME280;32260;52.008;4.752;2022-09-12T02:13:58;101692.63;;;18.03;63.86
46534;BME280;32260;52.008;4.752;2022-09-12T02:16:50;101694.59;;;17.98;64.11
46534;BME280;32260;52.008;4.752;2022-09-12T02:19:22;101692.06;;;17.93;64.04
46534;BME280;32260;52.008;4.752;2022-09-12T02:21:53;101682.31;;;17.90;64.18
46534;BME280;32260;52.008;4.752;2022-09-12T02:24:24;101677.03;;;17.89;64.00
46534;BME280;32260;52.008;4.752;2022-09-12T02:27:00;101678.78;;;17.90;64.12
46534;BME280;32260;52.008;4.752;2022-09-12T02:29:28;101678.88;;;17.87;63.84
46534;BME280;32260;52.008;4.752;2022-09-12T02:32:19;101677.75;;;17.94;63.69
46534;BME280;32260;52.008;4.752;2022-09-12T02:34:55;101682.31;;;17.90;64.06
46534;BME280;32260;52.008;4.752;2022-09-12T02:40:05;101677.09;;;17.87;64.27
46534;BME280;32260;52.008;4.752;2022-09-12T02:42:35;101685.06;;;17.89;64.29
46534;BME280;32260;52.008;4.752;2022-09-12T02:45:02;101677.03;;;17.89;64.24
46534;BME280;32260;52.008;4.752;2022-09-12T02:47:35;101676.03;;;17.91;64.06
46534;BME280;32260;52.008;4.752;2022-09-12T02:50:03;101677.88;;;17.89;63.95
46534;BME280;32260;52.008;4.752;2022-09-12T02:52:31;101687.66;;;17.92;64.19
46534;BME280;32260;52.008;4.752;2022-09-12T02:54:57;101681.41;;;17.91;64.22
46534;BME280;32260;52.008;4.752;2022-09-12T02:57:24;101669.75;;;17.92;64.23
46534;BME280;32260;52.008;4.752;2022-09-12T02:59:54;101679.50;;;17.95;64.34
46534;BME280;32260;52.008;4.752;2022-09-12T03:05:36;101670.25;;;18.04;64.02
46534;BME280;32260;52.008;4.752;2022-09-12T03:08:12;101672.06;;;18.03;64.07
46534;BME280;32260;52.008;4.752;2022-09-12T03:11:50;101662.38;;;17.99;64.35
46534;BME280;32260;52.008;4.752;2022-09-12T03:16:52;101657.19;;;17.93;64.25
46534;BME280;32260;52.008;4.752;2022-09-12T03:19:45;101653.28;;;18.03;63.94
46534;BME280;32260;52.008;4.752;2022-09-12T03:27:33;101638.22;;;17.99;64.26
46534;BME280;32260;52.008;4.752;2022-09-12T03:30:03;101643.66;;;17.98;64.22
46534;BME280;32260;52.008;4.752;2022-09-12T03:32:51;101633.41;;;18.09;64.15
46534;BME280;32260;52.008;4.752;2022-09-12T03:35:21;101632.69;;;18.04;64.43
46534;BME280;32260;52.008;4.752;2022-09-12T03:37:49;101635.31;;;18.05;64.32
46534;BME280;32260;52.008;4.752;2022-09-12T03:40:15;101639.75;;;18.06;64.28
46534;BME280;32260;52.008;4.752;2022-09-12T03:42:41;101638.00;;;18.05;64.45
46534;BME280;32260;52.008;4.752;2022-09-12T03:45:09;101638.81;;;18.07;64.64
46534;BME280;32260;52.008;4.752;2022-09-12T03:47:35;101636.97;;;18.09;64.69
46534;BME280;32260;52.008;4.752;2022-09-12T03:50:01;101638.69;;;18.10;64.57
46534;BME280;32260;52.008;4.752;2022-09-12T03:52:28;101640.44;;;18.11;64.43
46534;BME280;32260;52.008;4.752;2022-09-12T03:54:54;101637.72;;;18.13;64.35
46534;BME280;32260;52.008;4.752;2022-09-12T03:57:20;101634.97;;;18.15;64.43
46534;BME280;32260;52.008;4.752;2022-09-12T03:59:48;101634.91;;;18.16;64.41
46534;BME280;32260;52.008;4.752;2022-09-12T04:02:15;101640.22;;;18.18;64.28
46534;BME280;32260;52.008;4.752;2022-09-12T04:04:42;101632.16;;;18.18;64.39
46534;BME280;32260;52.008;4.752;2022-09-12T04:07:09;101625.00;;;18.18;64.29
46534;BME280;32260;52.008;4.752;2022-09-12T04:09:35;101625.88;;;18.19;64.38
46534;BME280;32260;52.008;4.752;2022-09-12T04:12:01;101635.72;;;18.18;64.35
46534;BME280;32260;52.008;4.752;2022-09-12T04:14:28;101623.19;;;18.19;64.36
46534;BME280;32260;52.008;4.752;2022-09-12T04:16:54;101624.13;;;18.18;64.57
46534;BME280;32260;52.008;4.752;2022-09-12T04:19:20;101624.19;;;18.16;64.56
46534;BME280;32260;52.008;4.752;2022-09-12T04:21:46;101623.25;;;18.17;64.28
46534;BME280;32260;52.008;4.752;2022-09-12T04:24:12;101622.34;;;18.17;64.42
46534;BME280;32260;52.008;4.752;2022-09-12T04:26:38;101618.75;;;18.18;64.34
46534;BME280;32260;52.008;4.752;2022-09-12T04:29:04;101623.19;;;18.19;64.34
46534;BME280;32260;52.008;4.752;2022-09-12T04:31:30;101625.88;;;18.19;64.24
46534;BME280;32260;52.008;4.752;2022-09-12T04:33:58;101620.50;;;18.19;64.36
46534;BME280;32260;52.008;4.752;2022-09-12T04:36:26;101617.81;;;18.19;64.28
46534;BME280;32260;52.008;4.752;2022-09-12T04:38:54;101623.25;;;18.17;64.20
46534;BME280;32260;52.008;4.752;2022-09-12T04:41:23;101622.34;;;18.17;64.34
46534;BME280;32260;52.008;4.752;2022-09-12T04:43:55;101624.13;;;18.18;64.16
46534;BME280;32260;52.008;4.752;2022-09-12T04:46:27;101623.41;;;18.13;64.23
46534;BME280;32260;52.008;4.752;2022-09-12T04:48:54;101625.28;;;18.10;64.11
46534;BME280;32260;52.008;4.752;2022-09-12T04:51:24;101619.06;;;18.10;64.17
46534;BME280;32260;52.008;4.752;2022-09-12T04:53:53;101615.97;;;18.21;64.11
46534;BME280;32260;52.008;4.752;2022-09-12T04:56:20;101617.44;;;18.06;64.14
46534;BME280;32260;52.008;4.752;2022-09-12T04:58:47;101628.19;;;18.04;64.01
46534;BME280;32260;52.008;4.752;2022-09-12T05:01:16;101626.59;;;18.00;64.05
46534;BME280;32260;52.008;4.752;2022-09-12T05:03:43;101622.28;;;17.96;64.05
46534;BME280;32260;52.008;4.752;2022-09-12T05:06:11;101629.44;;;17.95;63.99
46534;BME280;32260;52.008;4.752;2022-09-12T05:08:39;101623.31;;;17.92;64.12
46534;BME280;32260;52.008;4.752;2022-09-12T05:11:07;101626.94;;;17.89;63.97
46534;BME280;32260;52.008;4.752;2022-09-12T05:13:34;101624.41;;;17.86;64.02
46534;BME280;32260;52.008;4.752;2022-09-12T05:16:01;101629.78;;;17.86;64.01
46534;BME280;32260;52.008;4.752;2022-09-12T05:18:30;101618.28;;;17.83;64.06
46534;BME280;32260;52.008;4.752;2022-09-12T05:20:58;101628.19;;;17.81;64.08
46534;BME280;32260;52.008;4.752;2022-09-12T05:23:26;101623.88;;;17.76;64.05
46534;BME280;32260;52.008;4.752;2022-09-12T05:25:54;101623.94;;;17.75;64.03
46534;BME280;32260;52.008;4.752;2022-09-12T05:28:21;101628.47;;;17.73;64.17
46534;BME280;32260;52.008;4.752;2022-09-12T05:30:58;101619.63;;;17.71;64.10
46534;BME280;32260;52.008;4.752;2022-09-12T05:33:24;101622.34;;;17.69;64.15
46534;BME280;32260;52.008;4.752;2022-09-12T05:35:51;101614.44;;;17.66;64.36
46534;BME280;32260;52.008;4.752;2022-09-12T05:38:17;101611.84;;;17.63;64.41
46534;BME280;32260;52.008;4.752;2022-09-12T05:40:44;101608.38;;;17.61;64.73
46534;BME280;32260;52.008;4.752;2022-09-12T05:43:13;101598.66;;;17.58;64.82
46534;BME280;32260;52.008;4.752;2022-09-12T05:45:39;101606.63;;;17.60;64.89
46534;BME280;32260;52.008;4.752;2022-09-12T05:48:06;101604.88;;;17.59;64.77
46534;BME280;32260;52.008;4.752;2022-09-12T05:50:33;101600.56;;;17.55;65.00
46534;BME280;32260;52.008;4.752;2022-09-12T05:52:59;101597.00;;;17.54;65.08
46534;BME280;32260;52.008;4.752;2022-09-12T05:55:25;101604.19;;;17.54;65.19
46534;BME280;32260;52.008;4.752;2022-09-12T05:57:51;101608.63;;;17.55;65.06
46534;BME280;32260;52.008;4.752;2022-09-12T06:00:18;101612.09;;;17.57;65.08
46534;BME280;32260;52.008;4.752;2022-09-12T06:02:51;101611.94;;;17.61;64.96
46534;BME280;32260;52.008;4.752;2022-09-12T06:05:18;101622.59;;;17.63;64.77
46534;BME280;32260;52.008;4.752;2022-09-12T06:07:45;101616.13;;;17.69;64.76
46534;BME280;32260;52.008;4.752;2022-09-12T06:10:12;101620.50;;;17.71;64.83
46534;BME280;32260;52.008;4.752;2022-09-12T06:12:38;101622.34;;;17.69;64.82
46534;BME280;32260;52.008;4.752;2022-09-12T06:15:05;101630.22;;;17.74;64.48
46534;BME280;32260;52.008;4.752;2022-09-12T06:17:32;101630.16;;;17.75;64.72
46534;BME280;32260;52.008;4.752;2022-09-12T06:19:58;101621.31;;;17.73;65.07
46534;BME280;32260;52.008;4.752;2022-09-12T06:22:25;101613.28;;;17.73;65.18
46534;BME280;32260;52.008;4.752;2022-09-12T06:24:51;101614.16;;;17.74;65.33
46534;BME280;32260;52.008;4.752;2022-09-12T06:27:18;101609.53;;;17.77;65.52
46534;BME280;32260;52.008;4.752;2022-09-12T06:29:44;101606.75;;;17.81;65.37
46534;BME280;32260;52.008;4.752;2022-09-12T06:32:10;101609.19;;;17.87;65.19
46534;BME280;32260;52.008;4.752;2022-09-12T06:34:37;101601.88;;;17.92;64.99
46534;BME280;32260;52.008;4.752;2022-09-12T06:37:03;101598.16;;;17.96;65.47
46534;BME280;32260;52.008;4.752;2022-09-12T06:39:29;101598.00;;;17.99;65.50
46534;BME280;32260;52.008;4.752;2022-09-12T06:41:56;101597.78;;;18.05;65.33
46534;BME280;32260;52.008;4.752;2022-09-12T06:44:23;101595.00;;;18.08;65.18
46534;BME280;32260;52.008;4.752;2022-09-12T06:46:49;101601.03;;;18.14;65.57
46534;BME280;32260;52.008;4.752;2022-09-12T06:49:15;101600.78;;;18.20;65.34
46534;BME280;32260;52.008;4.752;2022-09-12T06:51:42;101600.41;;;18.29;65.21
46534;BME280;32260;52.008;4.752;2022-09-12T06:54:12;101602.84;;;18.35;65.54
46534;BME280;32260;52.008;4.752;2022-09-12T06:56:38;101606.22;;;18.40;65.54
46534;BME280;32260;52.008;4.752;2022-09-12T06:59:05;101600.66;;;18.45;65.37
46534;BME280;32260;52.008;4.752;2022-09-12T07:01:32;101604.09;;;18.49;65.37
46534;BME280;32260;52.008;4.752;2022-09-12T07:04:00;101602.91;;;18.56;65.40
46534;BME280;32260;52.008;4.752;2022-09-12T07:06:30;101599.97;;;18.62;65.60
46534;BME280;32260;52.008;4.752;2022-09-12T07:09:04;101604.28;;;18.66;65.57
46534;BME280;32260;52.008;4.752;2022-09-12T07:11:33;101604.84;;;18.74;65.16
46534;BME280;32260;52.008;4.752;2022-09-12T07:14:01;101605.50;;;18.80;65.27
46534;BME280;32260;52.008;4.752;2022-09-12T07:16:29;101605.25;;;18.86;64.92
46534;BME280;32260;52.008;4.752;2022-09-12T07:18:57;101612.16;;;18.93;64.99
46534;BME280;32260;52.008;4.752;2022-09-12T07:21:24;101608.38;;;18.97;64.91
46534;BME280;32260;52.008;4.752;2022-09-12T07:23:50;101609.03;;;19.02;65.03
46534;BME280;32260;52.008;4.752;2022-09-12T07:26:17;101612.34;;;19.09;64.60
46534;BME280;32260;52.008;4.752;2022-09-12T07:28:44;101617.50;;;19.14;64.69
46534;BME280;32260;52.008;4.752;2022-09-12T07:31:13;101618.06;;;19.22;64.72
46534;BME280;32260;52.008;4.752;2022-09-12T07:33:40;101614.16;;;19.29;64.37
46534;BME280;32260;52.008;4.752;2022-09-12T07:36:09;101611.97;;;19.37;64.45
46534;BME280;32260;52.008;4.752;2022-09-12T07:38:37;101606.56;;;19.39;64.72
46534;BME280;32260;52.008;4.752;2022-09-12T07:41:20;101607.53;;;19.57;64.18
46534;BME280;32260;52.008;4.752;2022-09-12T07:43:51;101617.34;;;19.58;64.26
46534;BME280;32260;52.008;4.752;2022-09-12T07:46:17;101616.13;;;19.65;64.34
46534;BME280;32260;52.008;4.752;2022-09-12T07:48:44;101617.56;;;19.72;64.15
46534;BME280;32260;52.008;4.752;2022-09-12T07:51:13;101622.53;;;19.82;64.13
46534;BME280;32260;52.008;4.752;2022-09-12T07:53:41;101617.91;;;19.85;63.95
46534;BME280;32260;52.008;4.752;2022-09-12T07:56:09;101613.09;;;19.92;63.99
46534;BME280;32260;52.008;4.752;2022-09-12T07:58:37;101616.31;;;20.00;63.95
46534;BME280;32260;52.008;4.752;2022-09-12T08:01:07;101621.25;;;20.10;63.73
46534;BME280;32260;52.008;4.752;2022-09-12T08:03:34;101623.66;;;20.16;63.59
46534;BME280;32260;52.008;4.752;2022-09-12T08:06:04;101622.41;;;20.23;63.49
46534;BME280;32260;52.008;4.752;2022-09-12T08:08:30;101618.19;;;20.36;63.29
46534;BME280;32260;52.008;4.752;2022-09-12T08:10:58;101622.97;;;20.49;63.14
46534;BME280;32260;52.008;4.752;2022-09-12T08:13:26;101624.53;;;20.53;62.99
46534;BME280;32260;52.008;4.752;2022-09-12T08:15:57;101620.44;;;20.63;62.69
46534;BME280;32260;52.008;4.752;2022-09-12T08:18:26;101607.88;;;20.64;62.37
46534;BME280;32260;52.008;4.752;2022-09-12T08:21:01;101612.59;;;20.78;61.83
46534;BME280;32260;52.008;4.752;2022-09-12T08:23:28;101614.16;;;20.82;61.93
46534;BME280;32260;52.008;4.752;2022-09-12T08:25:56;101609.34;;;20.89;62.22
46534;BME280;32260;52.008;4.752;2022-09-12T08:28:24;101615.09;;;20.98;61.17
46534;BME280;32260;52.008;4.752;2022-09-12T08:30:51;101617.34;;;21.08;60.92
46534;BME280;32260;52.008;4.752;2022-09-12T08:33:18;101610.50;;;21.18;60.94
46534;BME280;32260;52.008;4.752;2022-09-12T08:35:44;101610.91;;;21.28;60.23
46534;BME280;32260;52.008;4.752;2022-09-12T08:38:10;101612.94;;;21.40;60.37
46534;BME280;32260;52.008;4.752;2022-09-12T08:40:51;101601.34;;;21.56;60.09
46534;BME280;32260;52.008;4.752;2022-09-12T08:43:43;101605.84;;;21.73;59.53
46534;BME280;32260;52.008;4.752;2022-09-12T08:46:19;101609.16;;;21.78;59.43
46534;BME280;32260;52.008;4.752;2022-09-12T08:48:48;101604.44;;;21.81;59.34
46534;BME280;32260;52.008;4.752;2022-09-12T08:51:16;101599.25;;;21.94;59.35
46534;BME280;32260;52.008;4.752;2022-09-12T08:53:45;101602.63;;;21.98;58.69
46534;BME280;32260;52.008;4.752;2022-09-12T08:56:12;101602.56;;;22.00;58.55
46534;BME280;32260;52.008;4.752;2022-09-12T08:58:41;101605.28;;;22.00;58.06
46534;BME280;32260;52.008;4.752;2022-09-12T09:04:19;101602.91;;;22.25;58.49
46534;BME280;32260;52.008;4.752;2022-09-12T09:12:56;101602.91;;;22.57;58.06
46534;BME280;32260;52.008;4.752;2022-09-12T09:18:20;101588.19;;;22.77;57.89
46534;BME280;32260;52.008;4.752;2022-09-12T09:20:56;101590.63;;;22.82;56.26
46534;BME280;32260;52.008;4.752;2022-09-12T09:23:32;101587.78;;;23.00;57.31
46534;BME280;32260;52.008;4.752;2022-09-12T09:28:51;101584.56;;;23.23;54.35
46534;BME280;32260;52.008;4.752;2022-09-12T09:31:22;101572.41;;;23.31;54.64
46534;BME280;32260;52.008;4.752;2022-09-12T09:33:52;101570.88;;;23.41;54.25
46534;BME280;32260;52.008;4.752;2022-09-12T09:40:23;101576.47;;;23.67;53.86
46534;BME280;32260;52.008;4.752;2022-09-12T09:42:33;101576.44;;;23.81;52.77
46534;BME280;32260;52.008;4.752;2022-09-12T09:45:13;101561.53;;;23.88;52.36
46534;BME280;32260;52.008;4.752;2022-09-12T09:47:49;101555.75;;;23.95;53.55
46534;BME280;32260;52.008;4.752;2022-09-12T09:50:17;101554.41;;;24.02;53.50
46534;BME280;32260;52.008;4.752;2022-09-12T09:52:44;101549.44;;;24.09;53.46
46534;BME280;32260;52.008;4.752;2022-09-12T09:55:16;101540.63;;;24.19;52.02
46534;BME280;32260;52.008;4.752;2022-09-12T09:57:46;101533.59;;;24.30;52.33
46534;BME280;32260;52.008;4.752;2022-09-12T10:03:23;101530.13;;;24.55;50.19
46534;BME280;32260;52.008;4.752;2022-09-12T10:08:32;101532.00;;;24.67;51.29
46534;BME280;32260;52.008;4.752;2022-09-12T10:11:05;101519.66;;;24.76;50.13
46534;BME280;32260;52.008;4.752;2022-09-12T10:13:51;101516.31;;;24.85;49.60
46534;BME280;32260;52.008;4.752;2022-09-12T10:19:00;101513.94;;;24.94;49.11
46534;BME280;32260;52.008;4.752;2022-09-12T10:21:30;101509.91;;;24.99;49.27
46534;BME280;32260;52.008;4.752;2022-09-12T10:24:33;101511.00;;;24.97;46.91
46534;BME280;32260;52.008;4.752;2022-09-12T10:27:05;101503.50;;;25.13;48.52
46534;BME280;32260;52.008;4.752;2022-09-12T10:29:33;101502.97;;;25.21;48.13
46534;BME280;32260;52.008;4.752;2022-09-12T10:32:06;101504.41;;;25.40;49.15
46534;BME280;32260;52.008;4.752;2022-09-12T10:34:37;101505.66;;;25.47;47.97
46534;BME280;32260;52.008;4.752;2022-09-12T10:37:06;101487.63;;;25.59;48.49
46534;BME280;32260;52.008;4.752;2022-09-12T10:39:34;101486.94;;;25.68;47.30
46534;BME280;32260;52.008;4.752;2022-09-12T10:42:03;101483.06;;;25.59;47.48
46534;BME280;32260;52.008;4.752;2022-09-12T10:44:33;101483.25;;;25.69;47.20
46534;BME280;32260;52.008;4.752;2022-09-12T10:47:18;101486.94;;;25.68;46.06
46534;BME280;32260;52.008;4.752;2022-09-12T10:49:45;101490.00;;;25.63;47.46
46534;BME280;32260;52.008;4.752;2022-09-12T10:52:26;101486.38;;;25.76;47.58
46534;BME280;32260;52.008;4.752;2022-09-12T10:54:53;101493.75;;;25.98;45.55
46534;BME280;32260;52.008;4.752;2022-09-12T11:00:05;101494.41;;;26.14;45.56
46534;BME280;32260;52.008;4.752;2022-09-12T11:03:13;101491.13;;;26.34;45.50
46534;BME280;32260;52.008;4.752;2022-09-12T11:05:57;101485.84;;;26.43;45.85
46534;BME280;32260;52.008;4.752;2022-09-12T11:08:48;101487.59;;;26.44;43.31
46534;BME280;32260;52.008;4.752;2022-09-12T11:14:19;101477.88;;;26.53;43.56
46534;BME280;32260;52.008;4.752;2022-09-12T11:31:23;101476.47;;;26.94;41.68
46534;BME280;32260;52.008;4.752;2022-09-12T11:33:58;101477.31;;;26.95;41.92
46534;BME280;32260;52.008;4.752;2022-09-12T11:36:50;101477.47;;;27.16;42.49
46534;BME280;32260;52.008;4.752;2022-09-12T11:39:28;101475.84;;;27.13;42.95
46534;BME280;32260;52.008;4.752;2022-09-12T11:42:02;101479.81;;;27.21;42.34
46534;BME280;32260;52.008;4.752;2022-09-12T11:44:36;101476.34;;;27.30;42.49
46534;BME280;32260;52.008;4.752;2022-09-12T11:47:09;101474.09;;;27.35;42.37
46534;BME280;32260;52.008;4.752;2022-09-12T11:49:44;101471.44;;;27.47;42.93
46534;BME280;32260;52.008;4.752;2022-09-12T11:52:15;101470.53;;;27.57;41.72
46534;BME280;32260;52.008;4.752;2022-09-12T12:00:22;101459.19;;;27.85;41.04
46534;BME280;32260;52.008;4.752;2022-09-12T12:06:35;101440.81;;;27.98;40.99
46534;BME280;32260;52.008;4.752;2022-09-12T12:08:21;101439.84;;;27.99;39.95
46534;BME280;32260;52.008;4.752;2022-09-12T12:13:32;101439.38;;;27.94;39.51
46534;BME280;32260;52.008;4.752;2022-09-12T12:18:37;101445.50;;;28.19;40.59
46534;BME280;32260;52.008;4.752;2022-09-12T12:21:31;101441.34;;;28.24;39.13
46534;BME280;32260;52.008;4.752;2022-09-12T12:27:11;101416.50;;;28.39;39.36
46534;BME280;32260;52.008;4.752;2022-09-12T12:29:47;101419.22;;;28.18;38.41
46534;BME280;32260;52.008;4.752;2022-09-12T12:36:00;101413.72;;;28.29;39.68
46534;BME280;32260;52.008;4.752;2022-09-12T12:37:59;101413.38;;;28.22;39.15
46534;BME280;32260;52.008;4.752;2022-09-12T12:40:27;101422.50;;;28.33;38.47
46534;BME280;32260;52.008;4.752;2022-09-12T12:43:02;101407.50;;;28.48;38.62
46534;BME280;32260;52.008;4.752;2022-09-12T12:48:18;101411.16;;;28.58;37.77
46534;BME280;32260;52.008;4.752;2022-09-12T12:50:45;101403.41;;;28.54;37.71
46534;BME280;32260;52.008;4.752;2022-09-12T12:53:21;101400.69;;;28.54;37.88
46534;BME280;32260;52.008;4.752;2022-09-12T12:55:52;101402.22;;;28.47;38.80
46534;BME280;32260;52.008;4.752;2022-09-12T12:58:30;101391.16;;;28.48;38.22
46534;BME280;32260;52.008;4.752;2022-09-12T13:03:59;101385.22;;;28.64;37.40
46534;BME280;32260;52.008;4.752;2022-09-12T13:06:44;101382.19;;;28.79;37.21
46534;BME280;32260;52.008;4.752;2022-09-12T13:12:01;101378.50;;;28.99;37.16
46534;BME280;32260;52.008;4.752;2022-09-12T13:22:49;101380.16;;;29.21;35.74
46534;BME280;32260;52.008;4.752;2022-09-12T13:30:42;101373.47;;;29.35;35.16
46534;BME280;32260;52.008;4.752;2022-09-12T13:39:00;101355.09;;;29.77;34.81
46534;BME280;32260;52.008;4.752;2022-09-12T13:42:40;101349.06;;;29.73;32.44
46534;BME280;32260;52.008;4.752;2022-09-12T13:44:24;101340.84;;;29.73;33.94
46534;BME280;32260;52.008;4.752;2022-09-12T13:46:52;101339.59;;;29.67;34.34
46534;BME280;32260;52.008;4.752;2022-09-12T13:49:36;101337.84;;;29.86;35.40
46534;BME280;32260;52.008;4.752;2022-09-12T13:52:22;101335.81;;;29.78;34.33
46534;BME280;32260;52.008;4.752;2022-09-12T13:54:53;101332.13;;;29.89;35.24
46534;BME280;32260;52.008;4.752;2022-09-12T14:00:19;101333.53;;;30.03;33.94
46534;BME280;32260;52.008;4.752;2022-09-12T14:02:47;101325.47;;;30.01;34.86
46534;BME280;32260;52.008;4.752;2022-09-12T14:05:20;101322.91;;;30.00;34.43
46534;BME280;32260;52.008;4.752;2022-09-12T14:13:02;101306.50;;;30.00;35.98
46534;BME280;32260;52.008;4.752;2022-09-12T14:15:32;101288.06;;;30.12;36.78
46534;BME280;32260;52.008;4.752;2022-09-12T14:18:04;101295.66;;;30.18;33.94
46534;BME280;32260;52.008;4.752;2022-09-12T14:20:35;101299.81;;;30.32;35.02
46534;BME280;32260;52.008;4.752;2022-09-12T14:23:04;101301.97;;;30.28;34.32
46534;BME280;32260;52.008;4.752;2022-09-12T14:25:36;101302.06;;;30.37;33.40
46534;BME280;32260;52.008;4.752;2022-09-12T14:28:09;101301.78;;;30.40;32.89
46534;BME280;32260;52.008;4.752;2022-09-12T14:30:36;101298.06;;;30.41;34.01
46534;BME280;32260;52.008;4.752;2022-09-12T14:35:52;101301.13;;;30.18;33.33
46534;BME280;32260;52.008;4.752;2022-09-12T14:38:37;101300.44;;;30.16;34.45
46534;BME280;32260;52.008;4.752;2022-09-12T14:41:08;101302.19;;;30.07;33.55
46534;BME280;32260;52.008;4.752;2022-09-12T14:43:37;101298.16;;;30.01;33.85
46534;BME280;32260;52.008;4.752;2022-09-12T14:48:53;101292.09;;;29.88;33.53
46534;BME280;32260;52.008;4.752;2022-09-12T14:51:32;101291.00;;;29.81;33.54
46534;BME280;32260;52.008;4.752;2022-09-12T14:54:00;101292.00;;;29.70;32.55
46534;BME280;32260;52.008;4.752;2022-09-12T14:56:43;101287.53;;;29.89;34.66
46534;BME280;32260;52.008;4.752;2022-09-12T15:07:56;101279.75;;;30.04;34.38
46534;BME280;32260;52.008;4.752;2022-09-12T15:10:38;101287.97;;;30.04;33.74
46534;BME280;32260;52.008;4.752;2022-09-12T15:15:48;101278.16;;;30.11;32.70
46534;BME280;32260;52.008;4.752;2022-09-12T15:18:15;101274.28;;;30.13;33.91
46534;BME280;32260;52.008;4.752;2022-09-12T15:20:43;101269.06;;;30.20;32.18
46534;BME280;32260;52.008;4.752;2022-09-12T15:23:15;101273.50;;;30.31;33.75
46534;BME280;32260;52.008;4.752;2022-09-12T15:25:42;101273.00;;;30.36;33.15
46534;BME280;32260;52.008;4.752;2022-09-12T15:28:18;101268.38;;;30.46;33.14
46534;BME280;32260;52.008;4.752;2022-09-12T15:30:47;101269.84;;;30.50;32.57
46534;BME280;32260;52.008;4.752;2022-09-12T15:33:16;101264.38;;;30.50;31.78
46534;BME280;32260;52.008;4.752;2022-09-12T15:35:44;101268.97;;;30.49;32.53
46534;BME280;32260;52.008;4.752;2022-09-12T15:38:10;101262.34;;;30.42;32.47
46534;BME280;32260;52.008;4.752;2022-09-12T15:40:37;101262.91;;;30.46;33.67
46534;BME280;32260;52.008;4.752;2022-09-12T15:43:03;101262.56;;;30.31;33.15